Accueil
METAR-TAF:

METAR-TAF

Aéroports :

Greenville, Mississippi, États-Unis

latitude: 33-28-58N, longitude: 090-59-08W, altitude: 40 m

Observation

Le bulletin a été fait il y a 1 heure et 6 minutes, à 03:53 UTC
Vent calme
Température 26°C
Humidité 79%
Pression 1020 hPa
Visibilité: 16.1 km
Ciel clair

METAR: KGLH 140353Z AUTO 00000KT 10SM CLR 26/22 A3013 RMK AO2 RAB0256E06 SLP208 P0000 T02610222

Heure: 23:59 (04:59 UTC)

Prévision

Le bulletin a été fait il y a 5 heures et 4 minutes, à 23:55 UTC
Prévision valable du 14 à 00 UTC au 14 à 24 UTC
Vent 4 kt de ouest/nord-ouest
Visibilité: 10 km
Nuages épars à une hauteur de 6000 ft
Nuages fragmentés à une hauteur de 15000 ft

TAF: KGLH 132355Z 1400/1424 30004KT P6SM SCT060 BKN150

Observations et prévisions météorologiques de plus de 4000 aéroports (messages METAR et TAF).

Les stations disponibles sont représentées par des disques jaunes et rouges sur la carte.

Passer la souris dessus pour voir le nom de la station.

Cliquer dessus pour voir les observations et prévisions météorologiques.

Pour changer de carte: cliquez sur les boutons verts avec une croix noire pour zoomer, sur le bouton vert avec un tiret pour effectuer un zoom arrière, ou sur les flèches vertes pour les cartes adjacentes.


METAR-TAF: